sensor_id;sensor_type;location;lat;lon;timestamp;P1;durP1;ratioP1;P2;durP2;ratioP2
17812;SDS011;9030;50.792;8.320;2022-10-31T00:01:46;22.80;;;11.67;;
17812;SDS011;9030;50.792;8.320;2022-10-31T00:04:13;26.60;;;12.77;;
17812;SDS011;9030;50.792;8.320;2022-10-31T00:06:40;27.30;;;12.67;;
17812;SDS011;9030;50.792;8.320;2022-10-31T00:09:09;22.40;;;9.47;;
17812;SDS011;9030;50.792;8.320;2022-10-31T00:11:37;20.60;;;9.37;;
17812;SDS011;9030;50.792;8.320;2022-10-31T00:14:04;18.03;;;10.03;;
17812;SDS011;9030;50.792;8.320;2022-10-31T00:16:31;24.87;;;11.77;;
17812;SDS011;9030;50.792;8.320;2022-10-31T00:18:59;28.40;;;13.23;;
17812;SDS011;9030;50.792;8.320;2022-10-31T00:21:27;26.93;;;9.83;;
17812;SDS011;9030;50.792;8.320;2022-10-31T00:23:54;22.20;;;11.37;;
17812;SDS011;9030;50.792;8.320;2022-10-31T00:26:23;22.03;;;9.53;;
17812;SDS011;9030;50.792;8.320;2022-10-31T00:28:50;27.90;;;12.50;;
17812;SDS011;9030;50.792;8.320;2022-10-31T00:31:17;24.57;;;12.70;;
17812;SDS011;9030;50.792;8.320;2022-10-31T00:33:44;18.67;;;9.13;;
17812;SDS011;9030;50.792;8.320;2022-10-31T00:36:13;29.33;;;11.80;;
17812;SDS011;9030;50.792;8.320;2022-10-31T00:38:40;22.23;;;10.07;;
17812;SDS011;9030;50.792;8.320;2022-10-31T00:41:07;21.30;;;10.87;;
17812;SDS011;9030;50.792;8.320;2022-10-31T00:43:36;20.00;;;9.73;;
17812;SDS011;9030;50.792;8.320;2022-10-31T00:46:03;22.77;;;8.00;;
17812;SDS011;9030;50.792;8.320;2022-10-31T00:48:30;30.53;;;11.23;;
17812;SDS011;9030;50.792;8.320;2022-10-31T00:50:57;36.83;;;11.83;;
17812;SDS011;9030;50.792;8.320;2022-10-31T00:53:24;23.10;;;10.53;;
17812;SDS011;9030;50.792;8.320;2022-10-31T00:55:51;20.57;;;8.77;;
17812;SDS011;9030;50.792;8.320;2022-10-31T00:58:18;21.70;;;9.40;;
17812;SDS011;9030;50.792;8.320;2022-10-31T01:00:47;28.37;;;11.07;;
17812;SDS011;9030;50.792;8.320;2022-10-31T01:03:19;27.67;;;10.47;;
17812;SDS011;9030;50.792;8.320;2022-10-31T01:05:54;24.60;;;11.20;;
17812;SDS011;9030;50.792;8.320;2022-10-31T01:08:21;27.20;;;11.47;;
17812;SDS011;9030;50.792;8.320;2022-10-31T01:10:57;18.93;;;7.93;;
17812;SDS011;9030;50.792;8.320;2022-10-31T01:13:24;15.57;;;8.20;;
17812;SDS011;9030;50.792;8.320;2022-10-31T01:15:54;25.40;;;11.87;;
17812;SDS011;9030;50.792;8.320;2022-10-31T01:18:21;18.70;;;9.43;;
17812;SDS011;9030;50.792;8.320;2022-10-31T01:20:56;20.87;;;10.47;;
17812;SDS011;9030;50.792;8.320;2022-10-31T01:23:23;22.97;;;9.70;;
17812;SDS011;9030;50.792;8.320;2022-10-31T01:25:58;19.03;;;10.87;;
17812;SDS011;9030;50.792;8.320;2022-10-31T01:28:25;25.53;;;11.47;;
17812;SDS011;9030;50.792;8.320;2022-10-31T01:30:52;20.83;;;11.73;;
17812;SDS011;9030;50.792;8.320;2022-10-31T01:33:20;20.03;;;11.27;;
17812;SDS011;9030;50.792;8.320;2022-10-31T01:35:47;20.90;;;12.33;;
17812;SDS011;9030;50.792;8.320;2022-10-31T01:38:14;35.23;;;14.13;;
17812;SDS011;9030;50.792;8.320;2022-10-31T01:40:41;25.33;;;12.87;;
17812;SDS011;9030;50.792;8.320;2022-10-31T01:43:09;26.20;;;12.87;;
17812;SDS011;9030;50.792;8.320;2022-10-31T01:45:38;35.47;;;12.17;;
17812;SDS011;9030;50.792;8.320;2022-10-31T01:48:06;19.43;;;10.00;;
17812;SDS011;9030;50.792;8.320;2022-10-31T01:50:38;17.40;;;9.20;;
17812;SDS011;9030;50.792;8.320;2022-10-31T01:53:06;21.70;;;10.80;;
17812;SDS011;9030;50.792;8.320;2022-10-31T01:55:34;24.50;;;12.23;;
17812;SDS011;9030;50.792;8.320;2022-10-31T01:58:06;25.60;;;13.00;;
17812;SDS011;9030;50.792;8.320;2022-10-31T02:00:34;24.00;;;12.97;;
17812;SDS011;9030;50.792;8.320;2022-10-31T02:03:01;23.10;;;11.30;;
17812;SDS011;9030;50.792;8.320;2022-10-31T02:05:29;21.40;;;9.70;;
17812;SDS011;9030;50.792;8.320;2022-10-31T02:07:58;22.93;;;12.77;;
17812;SDS011;9030;50.792;8.320;2022-10-31T02:10:26;17.70;;;9.17;;
17812;SDS011;9030;50.792;8.320;2022-10-31T02:12:55;20.77;;;10.83;;
17812;SDS011;9030;50.792;8.320;2022-10-31T02:15:23;17.87;;;12.00;;
17812;SDS011;9030;50.792;8.320;2022-10-31T02:17:50;25.43;;;10.97;;
17812;SDS011;9030;50.792;8.320;2022-10-31T02:20:18;21.73;;;9.67;;
17812;SDS011;9030;50.792;8.320;2022-10-31T02:22:54;19.37;;;8.43;;
17812;SDS011;9030;50.792;8.320;2022-10-31T02:25:38;20.60;;;11.67;;
17812;SDS011;9030;50.792;8.320;2022-10-31T02:28:13;18.40;;;8.03;;
17812;SDS011;9030;50.792;8.320;2022-10-31T02:30:55;14.97;;;8.13;;
17812;SDS011;9030;50.792;8.320;2022-10-31T02:33:25;18.57;;;9.47;;
17812;SDS011;9030;50.792;8.320;2022-10-31T02:35:58;32.73;;;9.17;;
17812;SDS011;9030;50.792;8.320;2022-10-31T02:38:31;25.60;;;12.23;;
17812;SDS011;9030;50.792;8.320;2022-10-31T02:41:01;27.23;;;11.57;;
17812;SDS011;9030;50.792;8.320;2022-10-31T02:43:32;26.80;;;12.17;;
17812;SDS011;9030;50.792;8.320;2022-10-31T02:46:04;21.27;;;11.53;;
17812;SDS011;9030;50.792;8.320;2022-10-31T02:48:34;15.97;;;8.33;;
17812;SDS011;9030;50.792;8.320;2022-10-31T02:51:04;22.03;;;9.57;;
17812;SDS011;9030;50.792;8.320;2022-10-31T02:53:32;17.17;;;8.93;;
17812;SDS011;9030;50.792;8.320;2022-10-31T02:56:00;17.03;;;10.00;;
17812;SDS011;9030;50.792;8.320;2022-10-31T02:58:29;17.30;;;10.17;;
17812;SDS011;9030;50.792;8.320;2022-10-31T03:01:13;21.43;;;9.43;;
17812;SDS011;9030;50.792;8.320;2022-10-31T03:03:48;27.90;;;12.03;;
17812;SDS011;9030;50.792;8.320;2022-10-31T03:06:17;17.17;;;9.57;;
17812;SDS011;9030;50.792;8.320;2022-10-31T03:08:47;21.17;;;9.10;;
17812;SDS011;9030;50.792;8.320;2022-10-31T03:11:17;19.00;;;10.70;;
17812;SDS011;9030;50.792;8.320;2022-10-31T03:13:45;18.83;;;9.27;;
17812;SDS011;9030;50.792;8.320;2022-10-31T03:16:16;14.90;;;9.10;;
17812;SDS011;9030;50.792;8.320;2022-10-31T03:18:47;18.57;;;9.00;;
17812;SDS011;9030;50.792;8.320;2022-10-31T03:21:16;19.83;;;11.00;;
17812;SDS011;9030;50.792;8.320;2022-10-31T03:23:44;18.57;;;9.47;;
17812;SDS011;9030;50.792;8.320;2022-10-31T03:26:13;22.33;;;11.40;;
17812;SDS011;9030;50.792;8.320;2022-10-31T03:28:46;17.20;;;9.67;;
17812;SDS011;9030;50.792;8.320;2022-10-31T03:31:16;15.80;;;8.03;;
17812;SDS011;9030;50.792;8.320;2022-10-31T03:33:44;19.67;;;10.97;;
17812;SDS011;9030;50.792;8.320;2022-10-31T03:36:13;15.70;;;8.97;;
17812;SDS011;9030;50.792;8.320;2022-10-31T03:38:41;21.60;;;9.23;;
17812;SDS011;9030;50.792;8.320;2022-10-31T03:41:10;18.67;;;8.43;;
17812;SDS011;9030;50.792;8.320;2022-10-31T03:43:38;19.27;;;8.30;;
17812;SDS011;9030;50.792;8.320;2022-10-31T03:46:07;15.00;;;7.67;;
17812;SDS011;9030;50.792;8.320;2022-10-31T03:48:35;17.90;;;9.87;;
17812;SDS011;9030;50.792;8.320;2022-10-31T03:51:04;20.97;;;10.77;;
17812;SDS011;9030;50.792;8.320;2022-10-31T03:53:34;20.07;;;11.63;;
17812;SDS011;9030;50.792;8.320;2022-10-31T03:56:02;21.87;;;10.90;;
17812;SDS011;9030;50.792;8.320;2022-10-31T03:58:33;22.37;;;10.40;;
17812;SDS011;9030;50.792;8.320;2022-10-31T04:01:04;16.87;;;10.60;;
17812;SDS011;9030;50.792;8.320;2022-10-31T04:03:32;15.63;;;9.77;;
17812;SDS011;9030;50.792;8.320;2022-10-31T04:06:04;26.93;;;10.00;;
17812;SDS011;9030;50.792;8.320;2022-10-31T04:08:32;28.50;;;12.57;;
17812;SDS011;9030;50.792;8.320;2022-10-31T04:11:00;20.73;;;11.03;;
17812;SDS011;9030;50.792;8.320;2022-10-31T04:13:29;23.27;;;10.67;;
17812;SDS011;9030;50.792;8.320;2022-10-31T04:15:58;20.60;;;11.10;;
17812;SDS011;9030;50.792;8.320;2022-10-31T04:18:25;18.20;;;11.40;;
17812;SDS011;9030;50.792;8.320;2022-10-31T04:20:59;17.27;;;10.77;;
17812;SDS011;9030;50.792;8.320;2022-10-31T04:23:28;21.90;;;12.13;;
17812;SDS011;9030;50.792;8.320;2022-10-31T04:25:55;19.50;;;9.80;;
17812;SDS011;9030;50.792;8.320;2022-10-31T04:28:22;26.50;;;14.13;;
17812;SDS011;9030;50.792;8.320;2022-10-31T04:30:49;23.93;;;13.07;;
17812;SDS011;9030;50.792;8.320;2022-10-31T04:33:17;23.67;;;12.87;;
17812;SDS011;9030;50.792;8.320;2022-10-31T04:35:44;24.97;;;14.23;;
17812;SDS011;9030;50.792;8.320;2022-10-31T04:38:11;26.83;;;15.37;;
17812;SDS011;9030;50.792;8.320;2022-10-31T04:40:39;23.00;;;13.40;;
17812;SDS011;9030;50.792;8.320;2022-10-31T04:43:06;19.07;;;13.00;;
17812;SDS011;9030;50.792;8.320;2022-10-31T04:45:34;23.60;;;17.80;;
17812;SDS011;9030;50.792;8.320;2022-10-31T04:48:01;20.67;;;13.83;;
17812;SDS011;9030;50.792;8.320;2022-10-31T04:50:28;21.20;;;12.93;;
17812;SDS011;9030;50.792;8.320;2022-10-31T04:52:55;27.03;;;13.60;;
17812;SDS011;9030;50.792;8.320;2022-10-31T04:55:22;16.67;;;13.13;;
17812;SDS011;9030;50.792;8.320;2022-10-31T04:57:50;22.10;;;13.83;;
17812;SDS011;9030;50.792;8.320;2022-10-31T05:00:19;24.77;;;14.07;;
17812;SDS011;9030;50.792;8.320;2022-10-31T05:02:46;26.83;;;11.03;;
17812;SDS011;9030;50.792;8.320;2022-10-31T05:05:14;27.13;;;11.80;;
17812;SDS011;9030;50.792;8.320;2022-10-31T05:07:42;27.13;;;11.60;;
17812;SDS011;9030;50.792;8.320;2022-10-31T05:10:10;21.73;;;11.80;;
17812;SDS011;9030;50.792;8.320;2022-10-31T05:12:37;23.30;;;12.50;;
17812;SDS011;9030;50.792;8.320;2022-10-31T05:15:06;26.47;;;15.70;;
17812;SDS011;9030;50.792;8.320;2022-10-31T05:17:33;29.60;;;13.07;;
17812;SDS011;9030;50.792;8.320;2022-10-31T05:20:00;22.13;;;15.47;;
17812;SDS011;9030;50.792;8.320;2022-10-31T05:22:27;23.23;;;13.73;;
17812;SDS011;9030;50.792;8.320;2022-10-31T05:24:54;27.90;;;16.00;;
17812;SDS011;9030;50.792;8.320;2022-10-31T05:27:21;29.70;;;17.43;;
17812;SDS011;9030;50.792;8.320;2022-10-31T05:29:49;27.97;;;16.80;;
17812;SDS011;9030;50.792;8.320;2022-10-31T05:32:17;18.10;;;11.47;;
17812;SDS011;9030;50.792;8.320;2022-10-31T05:34:44;19.73;;;12.77;;
17812;SDS011;9030;50.792;8.320;2022-10-31T05:37:11;21.13;;;12.40;;
17812;SDS011;9030;50.792;8.320;2022-10-31T05:39:38;22.57;;;12.20;;
17812;SDS011;9030;50.792;8.320;2022-10-31T05:42:05;29.07;;;10.40;;
17812;SDS011;9030;50.792;8.320;2022-10-31T05:44:32;22.60;;;10.67;;
17812;SDS011;9030;50.792;8.320;2022-10-31T05:46:59;18.43;;;9.50;;
17812;SDS011;9030;50.792;8.320;2022-10-31T05:49:28;19.40;;;13.63;;
17812;SDS011;9030;50.792;8.320;2022-10-31T05:51:55;20.17;;;12.23;;
17812;SDS011;9030;50.792;8.320;2022-10-31T05:54:22;24.97;;;12.47;;
17812;SDS011;9030;50.792;8.320;2022-10-31T05:56:49;41.67;;;34.47;;
17812;SDS011;9030;50.792;8.320;2022-10-31T05:59:16;30.60;;;16.60;;
17812;SDS011;9030;50.792;8.320;2022-10-31T06:01:43;30.00;;;20.67;;
17812;SDS011;9030;50.792;8.320;2022-10-31T06:04:10;24.23;;;20.20;;
17812;SDS011;9030;50.792;8.320;2022-10-31T06:06:38;38.80;;;16.03;;
17812;SDS011;9030;50.792;8.320;2022-10-31T06:09:05;17.67;;;13.80;;
17812;SDS011;9030;50.792;8.320;2022-10-31T06:11:32;17.43;;;12.23;;
17812;SDS011;9030;50.792;8.320;2022-10-31T06:13:59;22.77;;;13.20;;
17812;SDS011;9030;50.792;8.320;2022-10-31T06:16:27;17.50;;;10.93;;
17812;SDS011;9030;50.792;8.320;2022-10-31T06:18:54;26.33;;;16.83;;
17812;SDS011;9030;50.792;8.320;2022-10-31T06:21:21;22.67;;;14.77;;
17812;SDS011;9030;50.792;8.320;2022-10-31T06:23:49;23.33;;;12.97;;
17812;SDS011;9030;50.792;8.320;2022-10-31T06:26:16;19.63;;;11.87;;
17812;SDS011;9030;50.792;8.320;2022-10-31T06:28:44;19.00;;;13.00;;
17812;SDS011;9030;50.792;8.320;2022-10-31T06:31:11;22.93;;;12.87;;
17812;SDS011;9030;50.792;8.320;2022-10-31T06:33:38;87.53;;;61.17;;
17812;SDS011;9030;50.792;8.320;2022-10-31T06:36:07;33.53;;;21.93;;
17812;SDS011;9030;50.792;8.320;2022-10-31T06:38:34;31.83;;;21.93;;
17812;SDS011;9030;50.792;8.320;2022-10-31T06:41:03;36.47;;;15.73;;
17812;SDS011;9030;50.792;8.320;2022-10-31T06:43:31;29.30;;;15.00;;
17812;SDS011;9030;50.792;8.320;2022-10-31T06:46:01;40.87;;;20.17;;
17812;SDS011;9030;50.792;8.320;2022-10-31T06:48:28;38.57;;;19.70;;
17812;SDS011;9030;50.792;8.320;2022-10-31T06:50:57;30.53;;;20.93;;
17812;SDS011;9030;50.792;8.320;2022-10-31T06:53:24;28.33;;;19.47;;
17812;SDS011;9030;50.792;8.320;2022-10-31T06:55:51;25.20;;;17.07;;
17812;SDS011;9030;50.792;8.320;2022-10-31T06:58:20;27.13;;;14.43;;
17812;SDS011;9030;50.792;8.320;2022-10-31T07:00:47;15.87;;;11.57;;
17812;SDS011;9030;50.792;8.320;2022-10-31T07:03:14;20.87;;;12.80;;
17812;SDS011;9030;50.792;8.320;2022-10-31T07:05:41;19.87;;;10.87;;
17812;SDS011;9030;50.792;8.320;2022-10-31T07:08:09;24.47;;;17.53;;
17812;SDS011;9030;50.792;8.320;2022-10-31T07:10:37;40.83;;;27.10;;
17812;SDS011;9030;50.792;8.320;2022-10-31T07:13:05;25.33;;;13.73;;
17812;SDS011;9030;50.792;8.320;2022-10-31T07:15:34;31.37;;;16.43;;
17812;SDS011;9030;50.792;8.320;2022-10-31T07:18:02;21.23;;;13.20;;
17812;SDS011;9030;50.792;8.320;2022-10-31T07:20:29;19.73;;;11.87;;
17812;SDS011;9030;50.792;8.320;2022-10-31T07:22:56;21.17;;;14.67;;
17812;SDS011;9030;50.792;8.320;2022-10-31T07:25:24;25.80;;;17.37;;
17812;SDS011;9030;50.792;8.320;2022-10-31T07:27:51;35.87;;;23.57;;
17812;SDS011;9030;50.792;8.320;2022-10-31T07:30:18;23.87;;;16.97;;
17812;SDS011;9030;50.792;8.320;2022-10-31T07:32:47;37.27;;;20.13;;
17812;SDS011;9030;50.792;8.320;2022-10-31T07:35:15;31.53;;;15.67;;
17812;SDS011;9030;50.792;8.320;2022-10-31T07:37:42;28.53;;;16.07;;
17812;SDS011;9030;50.792;8.320;2022-10-31T07:40:09;20.27;;;13.27;;
17812;SDS011;9030;50.792;8.320;2022-10-31T07:42:37;22.57;;;16.73;;
17812;SDS011;9030;50.792;8.320;2022-10-31T07:45:05;28.03;;;15.27;;
17812;SDS011;9030;50.792;8.320;2022-10-31T07:47:37;25.03;;;15.93;;
17812;SDS011;9030;50.792;8.320;2022-10-31T07:50:06;23.07;;;17.17;;
17812;SDS011;9030;50.792;8.320;2022-10-31T07:52:33;29.10;;;18.73;;
17812;SDS011;9030;50.792;8.320;2022-10-31T07:55:01;33.77;;;19.47;;
17812;SDS011;9030;50.792;8.320;2022-10-31T07:57:28;35.53;;;21.20;;
17812;SDS011;9030;50.792;8.320;2022-10-31T07:59:55;29.90;;;17.77;;
17812;SDS011;9030;50.792;8.320;2022-10-31T08:02:22;22.83;;;13.50;;
17812;SDS011;9030;50.792;8.320;2022-10-31T08:04:49;21.13;;;12.47;;
17812;SDS011;9030;50.792;8.320;2022-10-31T08:07:18;21.93;;;11.93;;
17812;SDS011;9030;50.792;8.320;2022-10-31T08:09:45;34.43;;;14.90;;
17812;SDS011;9030;50.792;8.320;2022-10-31T08:12:12;24.87;;;14.37;;
17812;SDS011;9030;50.792;8.320;2022-10-31T08:14:39;21.47;;;13.77;;
17812;SDS011;9030;50.792;8.320;2022-10-31T08:17:06;27.83;;;15.67;;
17812;SDS011;9030;50.792;8.320;2022-10-31T08:19:33;19.17;;;15.47;;
17812;SDS011;9030;50.792;8.320;2022-10-31T08:22:00;28.03;;;15.87;;
17812;SDS011;9030;50.792;8.320;2022-10-31T08:24:28;23.65;;;14.15;;
17812;SDS011;9030;50.792;8.320;2022-10-31T08:26:55;17.13;;;13.60;;
17812;SDS011;9030;50.792;8.320;2022-10-31T08:29:23;26.53;;;16.70;;
17812;SDS011;9030;50.792;8.320;2022-10-31T08:31:50;21.75;;;13.98;;
17812;SDS011;9030;50.792;8.320;2022-10-31T08:34:17;21.95;;;15.77;;
17812;SDS011;9030;50.792;8.320;2022-10-31T08:36:44;22.92;;;16.17;;
17812;SDS011;9030;50.792;8.320;2022-10-31T08:39:11;22.50;;;14.70;;
17812;SDS011;9030;50.792;8.320;2022-10-31T08:41:39;23.20;;;14.65;;
17812;SDS011;9030;50.792;8.320;2022-10-31T08:44:06;22.55;;;15.00;;
17812;SDS011;9030;50.792;8.320;2022-10-31T08:46:33;23.67;;;16.88;;
17812;SDS011;9030;50.792;8.320;2022-10-31T08:49:00;24.58;;;15.90;;
17812;SDS011;9030;50.792;8.320;2022-10-31T08:51:27;21.50;;;14.32;;
17812;SDS011;9030;50.792;8.320;2022-10-31T08:53:55;23.35;;;16.15;;
17812;SDS011;9030;50.792;8.320;2022-10-31T08:56:22;26.52;;;16.77;;
17812;SDS011;9030;50.792;8.320;2022-10-31T08:58:52;26.38;;;16.05;;
17812;SDS011;9030;50.792;8.320;2022-10-31T09:01:19;25.55;;;16.27;;
17812;SDS011;9030;50.792;8.320;2022-10-31T09:03:46;27.48;;;16.75;;
17812;SDS011;9030;50.792;8.320;2022-10-31T09:06:13;30.15;;;15.52;;
17812;SDS011;9030;50.792;8.320;2022-10-31T09:08:40;27.10;;;17.08;;
17812;SDS011;9030;50.792;8.320;2022-10-31T09:11:07;23.13;;;16.15;;
17812;SDS011;9030;50.792;8.320;2022-10-31T09:13:34;37.35;;;25.08;;
17812;SDS011;9030;50.792;8.320;2022-10-31T09:16:03;30.13;;;19.10;;
17812;SDS011;9030;50.792;8.320;2022-10-31T09:18:30;40.97;;;20.80;;
17812;SDS011;9030;50.792;8.320;2022-10-31T09:20:58;42.75;;;27.73;;
17812;SDS011;9030;50.792;8.320;2022-10-31T09:23:25;30.40;;;21.90;;
17812;SDS011;9030;50.792;8.320;2022-10-31T09:25:52;38.83;;;24.65;;
17812;SDS011;9030;50.792;8.320;2022-10-31T09:28:20;37.67;;;28.25;;
17812;SDS011;9030;50.792;8.320;2022-10-31T09:30:48;37.30;;;25.63;;
17812;SDS011;9030;50.792;8.320;2022-10-31T09:33:16;42.22;;;28.95;;
17812;SDS011;9030;50.792;8.320;2022-10-31T09:35:44;41.40;;;28.05;;
17812;SDS011;9030;50.792;8.320;2022-10-31T09:38:12;40.53;;;25.75;;
17812;SDS011;9030;50.792;8.320;2022-10-31T09:40:40;37.65;;;23.50;;
17812;SDS011;9030;50.792;8.320;2022-10-31T09:43:11;36.90;;;29.42;;
17812;SDS011;9030;50.792;8.320;2022-10-31T09:45:43;43.95;;;28.48;;
17812;SDS011;9030;50.792;8.320;2022-10-31T09:50:54;36.55;;;27.08;;
17812;SDS011;9030;50.792;8.320;2022-10-31T09:53:23;33.58;;;23.25;;
17812;SDS011;9030;50.792;8.320;2022-10-31T09:55:52;33.08;;;23.75;;
17812;SDS011;9030;50.792;8.320;2022-10-31T09:58:22;34.40;;;26.15;;
17812;SDS011;9030;50.792;8.320;2022-10-31T10:00:50;37.17;;;27.73;;
17812;SDS011;9030;50.792;8.320;2022-10-31T10:03:21;33.65;;;23.77;;
17812;SDS011;9030;50.792;8.320;2022-10-31T10:05:53;31.65;;;21.15;;
17812;SDS011;9030;50.792;8.320;2022-10-31T10:08:23;37.80;;;21.70;;
17812;SDS011;9030;50.792;8.320;2022-10-31T10:10:54;32.30;;;19.15;;
17812;SDS011;9030;50.792;8.320;2022-10-31T10:13:26;33.08;;;20.80;;
17812;SDS011;9030;50.792;8.320;2022-10-31T10:16:00;33.15;;;20.35;;
17812;SDS011;9030;50.792;8.320;2022-10-31T10:18:32;28.73;;;20.00;;
17812;SDS011;9030;50.792;8.320;2022-10-31T10:21:06;34.72;;;20.00;;
17812;SDS011;9030;50.792;8.320;2022-10-31T10:23:41;29.75;;;17.65;;
17812;SDS011;9030;50.792;8.320;2022-10-31T10:26:15;30.40;;;18.75;;
17812;SDS011;9030;50.792;8.320;2022-10-31T10:28:43;21.63;;;16.15;;
17812;SDS011;9030;50.792;8.320;2022-10-31T10:31:12;31.45;;;16.70;;
17812;SDS011;9030;50.792;8.320;2022-10-31T10:33:41;25.38;;;15.88;;
17812;SDS011;9030;50.792;8.320;2022-10-31T10:36:10;22.88;;;16.20;;
17812;SDS011;9030;50.792;8.320;2022-10-31T10:38:42;26.42;;;15.60;;
17812;SDS011;9030;50.792;8.320;2022-10-31T10:41:12;23.70;;;16.15;;
17812;SDS011;9030;50.792;8.320;2022-10-31T10:43:40;28.00;;;15.07;;
17812;SDS011;9030;50.792;8.320;2022-10-31T10:46:14;24.80;;;14.77;;
17812;SDS011;9030;50.792;8.320;2022-10-31T10:49:03;25.52;;;14.68;;
17812;SDS011;9030;50.792;8.320;2022-10-31T10:51:33;28.08;;;13.98;;
17812;SDS011;9030;50.792;8.320;2022-10-31T10:54:19;23.15;;;12.23;;
17812;SDS011;9030;50.792;8.320;2022-10-31T10:56:56;21.33;;;14.40;;
17812;SDS011;9030;50.792;8.320;2022-10-31T10:59:26;30.88;;;13.15;;
17812;SDS011;9030;50.792;8.320;2022-10-31T11:01:55;25.13;;;12.82;;
17812;SDS011;9030;50.792;8.320;2022-10-31T11:04:30;27.70;;;12.90;;
17812;SDS011;9030;50.792;8.320;2022-10-31T11:06:58;19.88;;;10.38;;
17812;SDS011;9030;50.792;8.320;2022-10-31T11:09:27;20.58;;;11.02;;
17812;SDS011;9030;50.792;8.320;2022-10-31T11:11:54;21.77;;;8.05;;
17812;SDS011;9030;50.792;8.320;2022-10-31T11:14:22;14.75;;;7.95;;
17812;SDS011;9030;50.792;8.320;2022-10-31T11:16:50;16.65;;;7.88;;
17812;SDS011;9030;50.792;8.320;2022-10-31T11:19:19;14.45;;;6.18;;
17812;SDS011;9030;50.792;8.320;2022-10-31T11:21:46;15.13;;;6.82;;
17812;SDS011;9030;50.792;8.320;2022-10-31T11:24:15;14.50;;;6.45;;
17812;SDS011;9030;50.792;8.320;2022-10-31T11:26:45;18.73;;;7.32;;
17812;SDS011;9030;50.792;8.320;2022-10-31T11:29:13;15.07;;;6.60;;
17812;SDS011;9030;50.792;8.320;2022-10-31T11:31:41;15.30;;;7.18;;
17812;SDS011;9030;50.792;8.320;2022-10-31T11:34:12;17.92;;;6.95;;
17812;SDS011;9030;50.792;8.320;2022-10-31T11:36:42;15.82;;;6.97;;
17812;SDS011;9030;50.792;8.320;2022-10-31T11:39:13;18.92;;;6.47;;
17812;SDS011;9030;50.792;8.320;2022-10-31T11:41:43;17.90;;;6.55;;
17812;SDS011;9030;50.792;8.320;2022-10-31T11:44:12;13.60;;;7.05;;
17812;SDS011;9030;50.792;8.320;2022-10-31T11:46:40;19.58;;;7.10;;
17812;SDS011;9030;50.792;8.320;2022-10-31T11:49:11;16.73;;;6.47;;
17812;SDS011;9030;50.792;8.320;2022-10-31T11:51:40;15.77;;;7.18;;
17812;SDS011;9030;50.792;8.320;2022-10-31T11:54:15;17.20;;;7.38;;
17812;SDS011;9030;50.792;8.320;2022-10-31T11:56:46;23.42;;;6.28;;
17812;SDS011;9030;50.792;8.320;2022-10-31T11:59:18;16.13;;;7.55;;
17812;SDS011;9030;50.792;8.320;2022-10-31T12:01:49;17.52;;;7.25;;
17812;SDS011;9030;50.792;8.320;2022-10-31T12:04:16;19.63;;;7.20;;
17812;SDS011;9030;50.792;8.320;2022-10-31T12:06:43;26.83;;;6.80;;
17812;SDS011;9030;50.792;8.320;2022-10-31T12:09:17;20.08;;;7.38;;
17812;SDS011;9030;50.792;8.320;2022-10-31T12:11:50;20.08;;;7.18;;
17812;SDS011;9030;50.792;8.320;2022-10-31T12:14:23;20.30;;;9.43;;
17812;SDS011;9030;50.792;8.320;2022-10-31T12:16:55;16.67;;;7.07;;
17812;SDS011;9030;50.792;8.320;2022-10-31T12:19:27;19.25;;;8.02;;
17812;SDS011;9030;50.792;8.320;2022-10-31T12:21:59;20.48;;;7.47;;
17812;SDS011;9030;50.792;8.320;2022-10-31T12:24:32;16.42;;;7.18;;
17812;SDS011;9030;50.792;8.320;2022-10-31T12:27:06;16.05;;;7.18;;
17812;SDS011;9030;50.792;8.320;2022-10-31T12:29:44;16.15;;;7.10;;
17812;SDS011;9030;50.792;8.320;2022-10-31T12:32:21;19.40;;;7.88;;
17812;SDS011;9030;50.792;8.320;2022-10-31T12:35:06;15.77;;;6.70;;
17812;SDS011;9030;50.792;8.320;2022-10-31T12:37:40;16.45;;;7.55;;
17812;SDS011;9030;50.792;8.320;2022-10-31T12:40:19;18.42;;;8.50;;
17812;SDS011;9030;50.792;8.320;2022-10-31T12:42:53;16.90;;;8.27;;
17812;SDS011;9030;50.792;8.320;2022-10-31T12:45:30;16.27;;;7.05;;
17812;SDS011;9030;50.792;8.320;2022-10-31T12:48:07;14.98;;;8.52;;
17812;SDS011;9030;50.792;8.320;2022-10-31T12:50:41;17.05;;;6.72;;
17812;SDS011;9030;50.792;8.320;2022-10-31T12:53:14;16.88;;;9.23;;
17812;SDS011;9030;50.792;8.320;2022-10-31T12:55:45;17.25;;;6.88;;
17812;SDS011;9030;50.792;8.320;2022-10-31T12:58:19;18.38;;;7.80;;
17812;SDS011;9030;50.792;8.320;2022-10-31T13:00:48;19.60;;;7.97;;
17812;SDS011;9030;50.792;8.320;2022-10-31T13:03:19;15.63;;;5.72;;
17812;SDS011;9030;50.792;8.320;2022-10-31T13:05:48;13.30;;;6.35;;
17812;SDS011;9030;50.792;8.320;2022-10-31T13:08:18;16.88;;;7.60;;
17812;SDS011;9030;50.792;8.320;2022-10-31T13:10:47;14.82;;;5.95;;
17812;SDS011;9030;50.792;8.320;2022-10-31T13:13:16;18.58;;;7.05;;
17812;SDS011;9030;50.792;8.320;2022-10-31T13:15:47;14.38;;;5.43;;
17812;SDS011;9030;50.792;8.320;2022-10-31T13:18:21;13.27;;;6.75;;
17812;SDS011;9030;50.792;8.320;2022-10-31T13:20:52;14.95;;;6.20;;
17812;SDS011;9030;50.792;8.320;2022-10-31T13:23:21;15.23;;;6.88;;
17812;SDS011;9030;50.792;8.320;2022-10-31T13:25:51;18.33;;;7.25;;
17812;SDS011;9030;50.792;8.320;2022-10-31T13:28:23;14.40;;;5.60;;
17812;SDS011;9030;50.792;8.320;2022-10-31T13:30:53;18.65;;;7.18;;
17812;SDS011;9030;50.792;8.320;2022-10-31T13:33:22;15.05;;;6.57;;
17812;SDS011;9030;50.792;8.320;2022-10-31T13:35:51;16.77;;;5.75;;
17812;SDS011;9030;50.792;8.320;2022-10-31T13:38:21;18.50;;;6.85;;
17812;SDS011;9030;50.792;8.320;2022-10-31T13:40:51;24.35;;;7.82;;
17812;SDS011;9030;50.792;8.320;2022-10-31T13:43:25;15.50;;;5.88;;
17812;SDS011;9030;50.792;8.320;2022-10-31T13:45:55;14.25;;;6.78;;
17812;SDS011;9030;50.792;8.320;2022-10-31T13:48:35;15.48;;;6.53;;
17812;SDS011;9030;50.792;8.320;2022-10-31T13:51:04;15.10;;;5.53;;
17812;SDS011;9030;50.792;8.320;2022-10-31T13:53:39;15.45;;;7.05;;
17812;SDS011;9030;50.792;8.320;2022-10-31T13:56:14;21.73;;;7.68;;
17812;SDS011;9030;50.792;8.320;2022-10-31T13:58:42;14.15;;;6.25;;
17812;SDS011;9030;50.792;8.320;2022-10-31T14:01:22;14.43;;;6.65;;
17812;SDS011;9030;50.792;8.320;2022-10-31T14:03:55;15.10;;;7.03;;
17812;SDS011;9030;50.792;8.320;2022-10-31T14:06:23;18.88;;;6.90;;
17812;SDS011;9030;50.792;8.320;2022-10-31T14:09:01;14.98;;;6.30;;
17812;SDS011;9030;50.792;8.320;2022-10-31T14:11:28;17.75;;;7.22;;
17812;SDS011;9030;50.792;8.320;2022-10-31T14:13:56;20.42;;;6.85;;
17812;SDS011;9030;50.792;8.320;2022-10-31T14:16:26;17.88;;;6.40;;
17812;SDS011;9030;50.792;8.320;2022-10-31T14:18:57;19.30;;;7.05;;
17812;SDS011;9030;50.792;8.320;2022-10-31T14:21:29;17.15;;;4.88;;
17812;SDS011;9030;50.792;8.320;2022-10-31T14:23:57;16.73;;;5.53;;
17812;SDS011;9030;50.792;8.320;2022-10-31T14:26:31;17.40;;;7.45;;
17812;SDS011;9030;50.792;8.320;2022-10-31T14:28:59;21.55;;;8.18;;
17812;SDS011;9030;50.792;8.320;2022-10-31T14:31:32;17.70;;;6.80;;
17812;SDS011;9030;50.792;8.320;2022-10-31T14:34:01;20.75;;;6.95;;
17812;SDS011;9030;50.792;8.320;2022-10-31T14:36:34;17.00;;;6.80;;
17812;SDS011;9030;50.792;8.320;2022-10-31T14:39:04;19.52;;;7.72;;
17812;SDS011;9030;50.792;8.320;2022-10-31T14:41:39;21.45;;;7.53;;
17812;SDS011;9030;50.792;8.320;2022-10-31T14:47:18;21.25;;;7.03;;
17812;SDS011;9030;50.792;8.320;2022-10-31T14:49:50;15.88;;;7.15;;
17812;SDS011;9030;50.792;8.320;2022-10-31T14:52:22;31.60;;;8.23;;
17812;SDS011;9030;50.792;8.320;2022-10-31T14:54:50;17.52;;;7.28;;
17812;SDS011;9030;50.792;8.320;2022-10-31T14:57:19;15.60;;;7.97;;